createdAt,value
2018-12-04T00:00:08.209Z,-2.4
2018-12-04T00:00:57.977Z,-2.3
2018-12-04T00:01:48.520Z,-2.3
2018-12-04T00:02:38.037Z,-2.3
2018-12-04T00:03:27.879Z,-2.3
2018-12-04T00:04:17.897Z,-2.3
2018-12-04T00:05:08.460Z,-2.4
2018-12-04T00:05:58.884Z,-2.3
2018-12-04T00:06:49.229Z,-2.3
2018-12-04T00:25:03.718Z,-2.6
2018-12-04T00:25:53.708Z,-2.6
2018-12-04T00:26:43.783Z,-2.6
2018-12-04T00:27:33.608Z,-2.6
2018-12-04T00:28:22.821Z,-2.6
2018-12-04T00:29:13.447Z,-2.6
2018-12-04T00:30:04.000Z,-2.6
2018-12-04T00:30:53.773Z,-2.6
2018-12-04T00:31:44.157Z,-2.5
2018-12-04T00:32:33.916Z,-2.4
2018-12-04T00:33:23.950Z,-2.4
2018-12-04T00:34:14.055Z,-2.6
2018-12-04T00:35:04.159Z,-2.6
2018-12-04T00:35:54.364Z,-2.6
2018-12-04T00:36:44.164Z,-2.6
2018-12-04T00:37:33.940Z,-2.6
2018-12-04T00:38:24.277Z,-2.6
2018-12-04T00:39:14.617Z,-2.6
2018-12-04T00:40:03.689Z,-2.6
2018-12-04T00:40:54.719Z,-2.7
2018-12-04T00:41:44.237Z,-2.6
2018-12-04T00:42:34.569Z,-2.6
2018-12-04T00:43:24.889Z,-2.6
2018-12-04T00:44:14.673Z,-2.6
2018-12-04T00:45:05.026Z,-2.6
2018-12-04T00:45:55.321Z,-2.6
2018-12-04T00:46:44.626Z,-2.6
2018-12-04T00:47:34.637Z,-2.6
2018-12-04T00:48:24.974Z,-2.6
2018-12-04T00:49:15.294Z,-2.6
2018-12-04T00:50:05.364Z,-2.6
2018-12-04T00:50:54.860Z,-2.6
2018-12-04T00:51:45.483Z,-2.6
2018-12-04T00:52:35.255Z,-2.5
2018-12-04T00:53:25.313Z,-2.5
2018-12-04T00:54:15.100Z,-2.5
2018-12-04T00:55:05.699Z,-2.6
2018-12-04T00:55:55.263Z,-2.6
2018-12-04T00:56:45.273Z,-2.6
2018-12-04T00:57:35.873Z,-2.7
2018-12-04T00:58:25.701Z,-2.6
2018-12-04T00:59:15.699Z,-2.6
2018-12-04T01:00:06.075Z,-2.6
2018-12-04T01:00:56.086Z,-2.6
2018-12-04T01:01:45.878Z,-2.6
2018-12-04T01:02:36.206Z,-2.6
2018-12-04T01:03:25.989Z,-2.7
2018-12-04T01:04:16.345Z,-2.6
2018-12-04T01:05:05.812Z,-2.7
2018-12-04T01:05:56.149Z,-2.7
2018-12-04T01:06:45.948Z,-2.7
2018-12-04T01:07:36.267Z,-2.6
2018-12-04T01:08:25.503Z,-2.6
2018-12-04T01:09:16.444Z,-2.6
2018-12-04T01:10:06.731Z,-2.6
2018-12-04T01:10:56.756Z,-2.6
2018-12-04T01:11:46.299Z,-2.6
2018-12-04T01:12:36.612Z,-2.6
2018-12-04T01:13:26.682Z,-2.6
2018-12-04T01:14:16.467Z,-2.7
2018-12-04T01:15:06.512Z,-2.7
2018-12-04T01:15:56.585Z,-2.7
2018-12-04T01:16:47.197Z,-2.7
2018-12-04T01:17:37.272Z,-2.6
2018-12-04T01:18:26.487Z,-2.6
2018-12-04T01:19:17.067Z,-2.6
2018-12-04T01:20:07.429Z,-2.7
2018-12-04T01:20:57.194Z,-2.7
2018-12-04T01:21:47.532Z,-2.7
2018-12-04T01:22:37.090Z,-2.7
2018-12-04T01:23:27.667Z,-2.8
2018-12-04T01:24:16.870Z,-2.7
2018-12-04T01:25:07.544Z,-2.7
2018-12-04T01:25:57.811Z,-2.7
2018-12-04T01:26:47.879Z,-2.6
2018-12-04T01:27:37.716Z,-2.6
2018-12-04T01:28:27.429Z,-2.6
2018-12-04T01:29:17.497Z,-2.6
2018-12-04T01:30:08.097Z,-2.6
2018-12-04T01:30:57.384Z,-2.6
2018-12-04T01:31:47.938Z,-2.6
2018-12-04T01:32:37.741Z,-2.6
2018-12-04T01:33:27.788Z,-2.6
2018-12-04T01:34:18.383Z,-2.6
2018-12-04T01:35:07.891Z,-2.6
2018-12-04T01:35:58.495Z,-2.6
2018-12-04T01:36:48.585Z,-2.7
2018-12-04T01:37:38.633Z,-2.6
2018-12-04T01:38:28.111Z,-2.7
2018-12-04T01:39:18.734Z,-2.7
2018-12-04T01:40:08.505Z,-2.7
2018-12-04T01:40:58.347Z,-2.7
2018-12-04T01:41:48.635Z,-2.7
2018-12-04T01:42:38.931Z,-2.8
2018-12-04T01:43:28.193Z,-2.7
2018-12-04T01:44:18.048Z,-2.8
2018-12-04T01:45:08.911Z,-2.7
2018-12-04T01:45:58.368Z,-2.7
2018-12-04T01:46:48.142Z,-2.8
2018-12-04T01:47:39.553Z,-2.7
2018-12-04T01:48:29.087Z,-2.7
2018-12-04T01:49:18.872Z,-2.8
2018-12-04T01:50:08.725Z,-2.7
2018-12-04T01:50:58.225Z,-2.7
2018-12-04T01:51:49.623Z,-2.8
2018-12-04T01:52:39.134Z,-2.7
2018-12-04T01:53:28.950Z,-2.7
2018-12-04T01:54:18.992Z,-2.7
2018-12-04T01:55:09.042Z,-2.7
2018-12-04T01:55:59.580Z,-2.8
2018-12-04T01:56:49.664Z,-2.8
2018-12-04T01:57:38.962Z,-2.8
2018-12-04T01:58:30.109Z,-2.8
2018-12-04T01:59:19.832Z,-2.7
2018-12-04T02:00:08.862Z,-2.7
2018-12-04T02:00:58.917Z,-2.6
2018-12-04T02:01:49.529Z,-2.6
2018-12-04T02:02:40.144Z,-2.6
2018-12-04T02:03:29.826Z,-2.6
2018-12-04T02:04:20.442Z,-2.8
2018-12-04T02:05:10.234Z,-2.7
2018-12-04T02:06:00.022Z,-2.6
2018-12-04T02:06:50.622Z,-2.7
2018-12-04T02:07:40.647Z,-2.8
2018-12-04T02:09:20.789Z,-2.7
2018-12-04T02:10:10.011Z,-2.7
2018-12-04T02:11:00.644Z,-2.7
2018-12-04T02:11:50.419Z,-2.7
2018-12-04T02:12:40.721Z,-2.8
2018-12-04T02:13:30.210Z,-2.7
2018-12-04T02:14:20.585Z,-2.7
2018-12-04T02:15:10.914Z,-2.8
2018-12-04T02:16:01.241Z,-2.8
2018-12-04T02:16:50.509Z,-2.8
2018-12-04T02:17:41.131Z,-2.8
2018-12-04T02:18:30.863Z,-2.8
2018-12-04T02:19:21.188Z,-2.8
2018-12-04T02:20:11.002Z,-2.6
2018-12-04T02:21:01.603Z,-2.6
2018-12-04T02:21:51.368Z,-2.7
2018-12-04T02:22:41.709Z,-2.7
2018-12-04T02:23:31.762Z,-2.7
2018-12-04T02:24:21.823Z,-2.7
2018-12-04T02:25:11.858Z,-2.7
2018-12-04T02:26:01.645Z,-2.7
2018-12-04T02:26:51.987Z,-2.6
2018-12-04T02:27:40.960Z,-2.6
2018-12-04T02:28:31.540Z,-2.8
2018-12-04T02:29:21.608Z,-2.8
2018-12-04T02:30:12.280Z,-2.7
2018-12-04T02:31:02.033Z,-2.6
2018-12-04T02:31:51.797Z,-2.6
2018-12-04T02:32:42.125Z,-2.6
2018-12-04T02:33:32.475Z,-2.6
2018-12-04T02:34:22.205Z,-2.6
2018-12-04T02:35:11.746Z,-2.6
2018-12-04T02:36:01.841Z,-2.6
2018-12-04T02:36:52.434Z,-2.6
2018-12-04T02:37:42.756Z,-2.6
2018-12-04T02:38:32.540Z,-2.6
2018-12-04T02:39:22.882Z,-2.6
2018-12-04T02:40:12.107Z,-2.7
2018-12-04T02:41:02.960Z,-2.6
2018-12-04T02:41:52.477Z,-2.8
2018-12-04T02:42:42.860Z,-2.7
2018-12-04T02:43:33.139Z,-2.7
2018-12-04T02:44:23.198Z,-2.7
2018-12-04T02:45:12.965Z,-2.7
2018-12-04T02:46:03.057Z,-2.6
2018-12-04T02:46:53.103Z,-2.6
2018-12-04T02:47:43.157Z,-2.6
2018-12-04T02:48:33.249Z,-2.7
2018-12-04T02:49:23.266Z,-2.7
2018-12-04T02:50:13.861Z,-2.8
2018-12-04T02:51:03.654Z,-2.7
2018-12-04T02:51:53.172Z,-2.7
2018-12-04T02:52:43.805Z,-2.7
2018-12-04T02:53:33.922Z,-2.7
2018-12-04T02:54:23.113Z,-2.8
2018-12-04T02:55:13.110Z,-2.7
2018-12-04T02:56:04.024Z,-2.7
2018-12-04T02:56:53.528Z,-2.7
2018-12-04T02:57:43.863Z,-2.7
2018-12-04T02:58:33.633Z,-2.8
2018-12-04T02:59:23.405Z,-2.8
2018-12-04T03:00:13.735Z,-2.8
2018-12-04T03:01:04.383Z,-2.7
2018-12-04T03:01:54.398Z,-2.7
2018-12-04T03:02:44.174Z,-2.7
2018-12-04T03:03:34.501Z,-2.7
2018-12-04T03:04:24.558Z,-2.7
2018-12-04T03:05:14.615Z,-2.7
2018-12-04T03:06:04.478Z,-2.7
2018-12-04T03:06:54.186Z,-2.7
2018-12-04T03:07:44.796Z,-2.7
2018-12-04T03:08:34.566Z,-2.7
2018-12-04T03:09:24.078Z,-2.7
2018-12-04T03:10:14.519Z,-2.6
2018-12-04T03:11:04.773Z,-2.6
2018-12-04T03:11:54.833Z,-2.6
2018-12-04T03:12:45.165Z,-2.6
2018-12-04T03:13:35.210Z,-2.6
2018-12-04T03:14:24.955Z,-2.6
2018-12-04T03:15:14.501Z,-2.7
2018-12-04T03:16:05.381Z,-2.7
2018-12-04T03:16:54.897Z,-2.7
2018-12-04T03:17:45.524Z,-2.7
2018-12-04T03:18:35.523Z,-2.6
2018-12-04T03:19:25.137Z,-2.6
2018-12-04T03:20:15.398Z,-2.6
2018-12-04T03:21:05.446Z,-2.6
2018-12-04T03:21:55.243Z,-2.6
2018-12-04T03:22:45.835Z,-2.6
2018-12-04T03:23:35.662Z,-2.6
2018-12-04T03:24:25.770Z,-2.6
2018-12-04T03:25:15.464Z,-2.6
2018-12-04T03:26:05.783Z,-2.7
2018-12-04T03:26:55.854Z,-2.7
2018-12-04T03:27:46.183Z,-2.7
2018-12-04T03:28:35.692Z,-2.7
2018-12-04T03:29:25.998Z,-2.7
2018-12-04T03:30:16.470Z,-2.7
2018-12-04T03:31:06.480Z,-2.7
2018-12-04T03:31:56.068Z,-2.6
2018-12-04T03:32:46.061Z,-2.6
2018-12-04T03:33:36.387Z,-2.6
2018-12-04T03:34:26.663Z,-2.6
2018-12-04T03:35:16.459Z,-2.7
2018-12-04T03:36:06.542Z,-2.7
2018-12-04T03:36:56.269Z,-2.6
2018-12-04T03:37:46.586Z,-2.7
2018-12-04T03:38:36.634Z,-2.6
2018-12-04T03:39:26.972Z,-2.8
2018-12-04T03:40:17.039Z,-2.8
2018-12-04T03:41:07.121Z,-2.7
2018-12-04T03:41:57.136Z,-2.6
2018-12-04T03:42:46.919Z,-2.6
2018-12-04T03:43:36.981Z,-2.6
2018-12-04T03:44:27.642Z,-2.8
2018-12-04T03:45:17.124Z,-2.7
2018-12-04T03:46:07.444Z,-2.7
2018-12-04T03:46:57.496Z,-2.6
2018-12-04T03:47:47.269Z,-2.6
2018-12-04T03:48:37.607Z,-2.5
2018-12-04T03:49:27.648Z,-2.6
2018-12-04T03:50:16.906Z,-2.6
2018-12-04T03:51:07.221Z,-2.7
2018-12-04T03:51:57.828Z,-2.6
2018-12-04T03:52:47.345Z,-2.6
2018-12-04T03:53:37.393Z,-2.6
2018-12-04T03:54:27.468Z,-2.6
2018-12-04T03:55:18.093Z,-2.6
2018-12-04T03:56:07.563Z,-2.6
2018-12-04T03:56:58.181Z,-2.7
2018-12-04T03:57:47.961Z,-2.7
2018-12-04T03:58:38.038Z,-2.6
2018-12-04T03:59:28.115Z,-2.6
2018-12-04T04:00:17.858Z,-2.5
2018-12-04T04:01:07.973Z,-2.5
2018-12-04T04:01:57.683Z,-2.5
2018-12-04T04:02:48.874Z,-2.5
2018-12-04T04:03:38.656Z,-2.5
2018-12-04T04:04:28.421Z,-2.5
2018-12-04T04:05:18.238Z,-2.6
2018-12-04T04:06:08.816Z,-2.5
2018-12-04T04:06:58.031Z,-2.4
2018-12-04T04:07:48.397Z,-2.4
2018-12-04T04:08:37.888Z,-2.4
2018-12-04T04:09:29.017Z,-2.4
2018-12-04T04:10:19.929Z,-2.4
2018-12-04T04:11:09.190Z,-2.5
2018-12-04T04:11:59.222Z,-2.5
2018-12-04T04:12:48.719Z,-2.5
2018-12-04T04:13:39.060Z,-2.5
2018-12-04T04:14:29.625Z,-2.5
2018-12-04T04:15:18.970Z,-2.5
2018-12-04T04:16:08.660Z,-2.5
2018-12-04T04:16:59.545Z,-2.5
2018-12-04T04:17:49.320Z,-2.4
2018-12-04T04:18:39.657Z,-2.4
2018-12-04T04:19:29.172Z,-2.4
2018-12-04T04:20:19.775Z,-2.4
2018-12-04T04:21:09.577Z,-2.4
2018-12-04T04:21:59.889Z,-2.4
2018-12-04T04:22:49.985Z,-2.4
2018-12-04T04:23:39.760Z,-2.4
2018-12-04T04:24:29.778Z,-2.4
2018-12-04T04:25:20.582Z,-2.4
2018-12-04T04:26:09.923Z,-2.4
2018-12-04T04:27:00.277Z,-2.3
2018-12-04T04:27:50.014Z,-2.3
2018-12-04T04:28:39.797Z,-2.4
2018-12-04T04:29:29.845Z,-2.4
2018-12-04T04:30:20.174Z,-2.4
2018-12-04T04:31:09.964Z,-2.4
2018-12-04T04:32:00.329Z,-2.4
2018-12-04T04:32:50.366Z,-2.3
2018-12-04T04:33:40.182Z,-2.4
2018-12-04T04:34:29.948Z,-2.4
2018-12-04T04:35:20.791Z,-2.3
2018-12-04T04:36:10.586Z,-2.3
2018-12-04T04:37:00.928Z,-2.3
2018-12-04T04:54:21.026Z,-2.3
2018-12-04T04:55:11.019Z,-2.3
2018-12-04T04:56:00.558Z,-2.3
2018-12-04T04:56:50.348Z,-2.3
2018-12-04T04:57:40.136Z,-2.3
2018-12-04T04:58:31.003Z,-2.3
2018-12-04T04:59:21.037Z,-2.3
2018-12-04T05:00:11.128Z,-2.3
2018-12-04T05:01:01.152Z,-2.3
2018-12-04T05:01:51.203Z,-2.3
2018-12-04T05:02:40.985Z,-2.3
2018-12-04T05:03:31.034Z,-2.3
2018-12-04T05:04:21.368Z,-2.2
2018-12-04T05:05:11.393Z,-2.2
2018-12-04T05:06:00.668Z,-2.2
2018-12-04T05:06:51.265Z,-2.2
2018-12-04T05:07:41.327Z,-2.2
2018-12-04T05:08:31.428Z,-2.1
2018-12-04T05:09:21.730Z,-2.2
2018-12-04T05:10:11.768Z,-2.2
2018-12-04T05:11:01.846Z,-2.2
2018-12-04T05:11:51.615Z,-2.1
2018-12-04T05:12:41.667Z,-2.2
2018-12-04T05:13:31.468Z,-2.1
2018-12-04T05:14:21.533Z,-2.1
2018-12-04T05:15:11.869Z,-2.1
2018-12-04T05:16:01.947Z,-2.1
2018-12-04T05:16:51.720Z,-2.1
2018-12-04T05:17:42.315Z,-2.2
2018-12-04T05:18:32.109Z,-2.1
2018-12-04T05:19:22.122Z,-2.1
2018-12-04T05:20:12.214Z,-2
2018-12-04T05:21:02.247Z,-2.1
2018-12-04T05:21:52.277Z,-2.1
2018-12-04T05:22:42.644Z,-2
2018-12-04T05:23:32.685Z,-2.1
2018-12-04T05:24:22.461Z,-2
2018-12-04T05:25:12.218Z,-2.1
2018-12-04T05:26:02.344Z,-2.1
2018-12-04T05:26:52.911Z,-2
2018-12-04T05:27:42.991Z,-2.1
2018-12-04T05:28:32.479Z,-2.1
2018-12-04T05:29:23.141Z,-2
2018-12-04T05:30:12.596Z,-1.9
2018-12-04T05:31:03.219Z,-2
2018-12-04T05:31:52.982Z,-2
2018-12-04T05:32:43.565Z,-2
2018-12-04T05:33:33.105Z,-2
2018-12-04T05:34:23.485Z,-2
2018-12-04T05:35:13.203Z,-2.1
2018-12-04T05:36:03.321Z,-2.1
2018-12-04T05:36:53.608Z,-2.1
2018-12-04T05:37:43.093Z,-2.1
2018-12-04T05:38:33.455Z,-2
2018-12-04T05:39:23.556Z,-2.1
2018-12-04T05:40:13.537Z,-2
2018-12-04T05:41:03.857Z,-2.1
2018-12-04T05:41:53.658Z,-2.1
2018-12-04T05:42:43.740Z,-2.1
2018-12-04T05:43:33.510Z,-2
2018-12-04T05:44:24.377Z,-2
2018-12-04T05:45:13.884Z,-2.1
2018-12-04T05:46:03.723Z,-2.1
2018-12-04T05:46:54.275Z,-2
2018-12-04T05:47:44.085Z,-2
2018-12-04T05:48:33.830Z,-2.1
2018-12-04T05:49:23.907Z,-2.1
2018-12-04T05:50:14.229Z,-2.1
2018-12-04T05:51:04.566Z,-2.1
2018-12-04T05:51:54.349Z,-2.1
2018-12-04T05:52:44.697Z,-2.1
2018-12-04T05:53:34.469Z,-2.1
2018-12-04T05:54:24.236Z,-2.1
2018-12-04T05:55:14.835Z,-2.1
2018-12-04T05:56:04.906Z,-2
2018-12-04T05:56:54.689Z,-2.1
2018-12-04T05:57:44.757Z,-2.1
2018-12-04T05:58:35.092Z,-2.1
2018-12-04T05:59:24.873Z,-2.1
2018-12-04T06:00:14.699Z,-2.1
2018-12-04T06:01:04.963Z,-2.1
2018-12-04T06:01:55.026Z,-2
2018-12-04T06:02:44.794Z,-2
2018-12-04T06:03:34.901Z,-1.9
2018-12-04T06:04:24.979Z,-1.9
2018-12-04T06:05:15.541Z,-1.9
2018-12-04T06:06:05.598Z,-2
2018-12-04T06:06:55.370Z,-1.9
2018-12-04T06:07:45.141Z,-1.9
2018-12-04T06:08:35.741Z,-1.9
2018-12-04T06:09:25.245Z,-1.9
2018-12-04T06:10:15.035Z,-1.9
2018-12-04T06:11:05.906Z,-1.9
2018-12-04T06:11:55.712Z,-1.9
2018-12-04T06:12:45.755Z,-1.9
2018-12-04T06:13:35.827Z,-1.9
2018-12-04T06:14:25.582Z,-1.9
2018-12-04T06:15:16.208Z,-1.9
2018-12-04T06:16:05.987Z,-1.9
2018-12-04T06:16:56.305Z,-1.8
2018-12-04T06:17:45.267Z,-1.9
2018-12-04T06:18:36.378Z,-1.9
2018-12-04T06:19:26.482Z,-1.9
2018-12-04T06:20:16.524Z,-1.8
2018-12-04T06:21:06.319Z,-1.9
2018-12-04T06:21:56.669Z,-1.9
2018-12-04T06:22:46.146Z,-1.9
2018-12-04T06:23:36.194Z,-1.9
2018-12-04T06:24:25.973Z,-1.8
2018-12-04T06:25:16.934Z,-1.8
2018-12-04T06:26:07.232Z,-1.8
2018-12-04T06:26:57.251Z,-1.8
2018-12-04T06:27:47.039Z,-1.8
2018-12-04T06:28:37.116Z,-1.7
2018-12-04T06:29:26.881Z,-1.8
2018-12-04T06:30:16.954Z,-1.8
2018-12-04T06:31:06.989Z,-1.7
2018-12-04T06:31:57.321Z,-1.7
2018-12-04T06:32:47.104Z,-1.7
2018-12-04T06:33:37.461Z,-1.7
2018-12-04T06:34:26.680Z,-1.7
2018-12-04T06:35:17.566Z,-1.8
2018-12-04T06:36:07.607Z,-1.8
2018-12-04T06:36:57.103Z,-1.7
2018-12-04T06:37:47.452Z,-1.6
2018-12-04T06:38:37.230Z,-1.6
2018-12-04T06:39:27.330Z,-1.6
2018-12-04T06:40:17.898Z,-1.6
2018-12-04T06:41:07.948Z,-1.6
2018-12-04T06:41:57.217Z,-1.7
2018-12-04T06:42:48.108Z,-1.7
2018-12-04T06:43:37.566Z,-1.7
2018-12-04T06:44:28.421Z,-1.7
2018-12-04T06:45:18.234Z,-1.7
2018-12-04T06:46:08.022Z,-1.6
2018-12-04T06:46:58.338Z,-1.7
2018-12-04T06:47:48.405Z,-1.6
2018-12-04T06:48:38.466Z,-1.6
2018-12-04T06:49:28.297Z,-1.6
2018-12-04T06:50:18.304Z,-1.8
2018-12-04T06:51:08.370Z,-1.8
2018-12-04T06:51:58.425Z,-1.6
2018-12-04T06:52:48.476Z,-1.6
2018-12-04T06:53:38.554Z,-1.5
2018-12-04T06:54:28.040Z,-1.5
2018-12-04T06:55:18.170Z,-1.4
2018-12-04T06:56:08.692Z,-1.4
2018-12-04T06:56:58.195Z,-1.4
2018-12-04T06:57:48.278Z,-1.4
2018-12-04T06:58:39.140Z,-1.4
2018-12-04T06:59:28.664Z,-1.4
2018-12-04T07:00:18.977Z,-1.4
2018-12-04T07:01:08.482Z,-1.4
2018-12-04T07:01:59.094Z,-1.4
2018-12-04T07:02:48.422Z,-1.4
2018-12-04T07:03:39.011Z,-1.4
2018-12-04T07:04:29.521Z,-1.4
2018-12-04T07:05:19.350Z,-1.4
2018-12-04T07:06:09.684Z,-1.4
2018-12-04T07:06:59.720Z,-1.4
2018-12-04T07:07:49.771Z,-1.3
2018-12-04T07:08:39.831Z,-1.3
2018-12-04T07:09:29.604Z,-1.3
2018-12-04T07:10:19.947Z,-1.3
2018-12-04T07:11:09.453Z,-1.2
2018-12-04T07:12:04.931Z,-1.1
2018-12-04T07:12:49.546Z,-1.1
2018-12-04T07:13:39.683Z,-1.1
2018-12-04T07:14:30.461Z,-1.1
2018-12-04T07:15:20.016Z,-1.1
2018-12-04T07:16:09.248Z,-1.1
2018-12-04T07:17:00.385Z,-1.3
2018-12-04T07:17:50.160Z,-1.2
2018-12-04T07:18:40.213Z,-1.1
2018-12-04T07:19:30.276Z,-1.1
2018-12-04T07:20:20.054Z,-1.1
2018-12-04T07:21:10.933Z,-1.1
2018-12-04T07:22:01.472Z,-1.1
2018-12-04T07:22:50.558Z,-1
2018-12-04T07:23:40.585Z,-1.1
2018-12-04T07:24:30.665Z,-1.1
2018-12-04T07:25:20.978Z,-1.1
2018-12-04T07:26:10.221Z,-1
2018-12-04T07:27:00.821Z,-1.1
2018-12-04T07:27:50.855Z,-1
2018-12-04T07:32:01.110Z,-1
2018-12-04T07:32:50.928Z,-1.1
2018-12-04T07:33:41.280Z,-1
2018-12-04T07:34:31.337Z,-1
2018-12-04T07:36:11.442Z,-0.9
2018-12-04T07:37:02.078Z,-0.8
2018-12-04T07:37:50.729Z,-0.8
2018-12-04T07:38:41.877Z,-0.8
2018-12-04T07:39:31.975Z,-0.7
2018-12-04T07:40:21.722Z,-0.8
2018-12-04T07:41:12.077Z,-0.8
2018-12-04T07:42:02.121Z,-0.7
2018-12-04T07:42:51.612Z,-0.7
2018-12-04T07:43:41.934Z,-0.7
2018-12-04T07:44:32.012Z,-0.6
2018-12-04T07:45:22.336Z,-0.6
2018-12-04T07:46:12.405Z,-0.6
2018-12-04T07:47:02.436Z,-0.8
2018-12-04T07:47:52.503Z,-0.7
2018-12-04T07:48:41.732Z,-0.7
2018-12-04T07:49:32.090Z,-0.7
2018-12-04T07:50:22.194Z,-0.6
2018-12-04T07:51:12.173Z,-0.7
2018-12-04T07:52:02.234Z,-0.7
2018-12-04T07:52:52.633Z,-0.6
2018-12-04T07:53:42.344Z,-0.7
2018-12-04T07:54:32.682Z,-0.6
2018-12-04T07:55:23.006Z,-0.6
2018-12-04T07:56:12.529Z,-0.6
2018-12-04T07:57:02.884Z,-0.6
2018-12-04T07:57:53.024Z,-0.6
2018-12-04T07:58:42.958Z,-0.6
2018-12-04T07:59:33.298Z,-0.6
2018-12-04T08:00:22.793Z,-0.4
2018-12-04T08:01:13.376Z,-0.4
2018-12-04T08:02:03.211Z,-0.4
2018-12-04T08:02:53.829Z,-0.4
2018-12-04T08:03:43.303Z,-0.4
2018-12-04T08:04:33.340Z,-0.3
2018-12-04T08:05:23.423Z,-0.3
2018-12-04T08:06:13.487Z,-0.3
2018-12-04T08:07:03.803Z,-0.4
2018-12-04T08:07:53.907Z,-0.3
2018-12-04T08:08:43.645Z,-0.3
2018-12-04T08:09:33.410Z,-0.4
2018-12-04T08:10:23.767Z,-0.4
2018-12-04T08:11:13.562Z,-0.3
2018-12-04T08:12:03.669Z,-0.3
2018-12-04T08:12:53.929Z,-0.2
2018-12-04T08:13:44.262Z,-0.2
2018-12-04T08:14:34.030Z,-0.1
2018-12-04T08:15:24.094Z,-0.2
2018-12-04T08:16:14.437Z,-0.1
2018-12-04T08:17:04.477Z,-0.1
2018-12-04T08:17:53.727Z,-0.1
2018-12-04T08:18:44.111Z,-0.1
2018-12-04T08:19:34.876Z,-0.1
2018-12-04T08:20:24.164Z,-0.1
2018-12-04T08:21:14.794Z,-0.1
2018-12-04T08:22:04.546Z,-0.1
2018-12-04T08:22:54.604Z,-0.2
2018-12-04T08:23:44.898Z,-0.2
2018-12-04T08:24:35.530Z,-0.1
2018-12-04T08:25:24.768Z,-0.1
2018-12-04T08:26:14.854Z,-0.1
2018-12-04T08:27:04.894Z,-0.1
2018-12-04T08:27:54.966Z,-0.1
2018-12-04T08:28:44.453Z,0
2018-12-04T08:29:35.071Z,0
2018-12-04T08:30:25.376Z,0.1
2018-12-04T08:31:15.753Z,0.1
2018-12-04T08:32:05.249Z,0.1
2018-12-04T08:32:55.276Z,0.1
2018-12-04T08:33:45.348Z,0
2018-12-04T08:34:35.403Z,0.1
2018-12-04T08:35:25.458Z,0.2
2018-12-04T08:36:15.801Z,0.3
2018-12-04T08:37:05.578Z,0.4
2018-12-04T08:37:55.645Z,0.3
2018-12-04T08:38:46.008Z,0.4
2018-12-04T08:39:35.195Z,0.4
2018-12-04T08:40:26.067Z,0.4
2018-12-04T08:41:15.602Z,0.4
2018-12-04T08:42:05.900Z,0.4
2018-12-04T08:42:56.225Z,0.5
2018-12-04T08:43:46.793Z,0.6
2018-12-04T08:44:36.067Z,0.6
2018-12-04T08:45:26.132Z,0.6
2018-12-04T08:46:16.457Z,0.5
2018-12-04T08:47:06.515Z,0.5
2018-12-04T08:47:56.007Z,0.5
2018-12-04T08:48:45.802Z,0.6
2018-12-04T08:49:36.680Z,0.6
2018-12-04T08:50:26.192Z,0.5
2018-12-04T08:51:16.800Z,0.6
2018-12-04T08:52:06.845Z,0.6
2018-12-04T08:52:56.642Z,0.6
2018-12-04T09:08:45.851Z,0.6
2018-12-04T09:09:35.042Z,0.6
2018-12-04T09:10:25.686Z,0.7
2018-12-04T09:11:15.118Z,0.8
2018-12-04T09:12:05.148Z,0.8
2018-12-04T09:12:55.236Z,0.8
2018-12-04T09:13:45.881Z,0.8
2018-12-04T09:14:41.421Z,0.8
2018-12-04T09:15:25.644Z,0.9
2018-12-04T09:16:15.462Z,0.9
2018-12-04T09:17:05.250Z,0.8
2018-12-04T09:17:55.843Z,0.9
2018-12-04T09:18:45.914Z,1
2018-12-04T09:19:36.233Z,0.9
2018-12-04T09:20:26.851Z,0.9
2018-12-04T09:21:16.180Z,0.9
2018-12-04T09:22:06.746Z,0.9
2018-12-04T09:22:56.465Z,0.9
2018-12-04T09:23:46.872Z,0.9
2018-12-04T09:24:36.403Z,0.9
2018-12-04T09:25:26.968Z,0.8
2018-12-04T09:26:16.875Z,0.8
2018-12-04T09:27:08.669Z,0.9
2018-12-04T09:27:57.988Z,0.8
2018-12-04T09:28:46.025Z,0.9
2018-12-04T09:29:36.902Z,1
2018-12-04T09:30:26.526Z,1
2018-12-04T09:31:15.984Z,1
2018-12-04T09:32:06.305Z,1.1
2018-12-04T09:32:56.374Z,1.2
2018-12-04T09:33:46.879Z,1.1
2018-12-04T09:34:36.758Z,1.1
2018-12-04T09:35:26.284Z,1.1
2018-12-04T09:36:16.333Z,1.1
2018-12-04T09:37:06.772Z,1.2
2018-12-04T09:37:56.709Z,1.2
2018-12-04T09:38:47.042Z,1.3
2018-12-04T09:39:37.364Z,1.3
2018-12-04T09:40:27.399Z,1.4
2018-12-04T09:41:17.479Z,1.4
2018-12-04T09:42:07.764Z,1.4
2018-12-04T09:42:57.314Z,1.3
2018-12-04T09:43:47.859Z,1.5
2018-12-04T09:44:37.918Z,1.5
2018-12-04T09:45:27.974Z,1.6
2018-12-04T09:46:17.259Z,1.6
2018-12-04T09:47:08.106Z,1.6
2018-12-04T09:47:57.881Z,1.5
2018-12-04T09:48:47.969Z,1.6
2018-12-04T09:49:38.558Z,1.7
2018-12-04T09:50:27.754Z,1.8
2018-12-04T09:51:18.634Z,1.8
2018-12-04T09:52:07.595Z,1.8
2018-12-04T09:52:58.235Z,1.8
2018-12-04T09:53:54.140Z,1.8
2018-12-04T09:54:38.613Z,1.7
2018-12-04T09:55:28.363Z,1.9
2018-12-04T09:56:18.218Z,1.9
2018-12-04T09:57:07.940Z,1.9
2018-12-04T09:57:58.548Z,1.9
2018-12-04T09:58:48.606Z,1.8
2018-12-04T09:59:42.247Z,1.7
2018-12-04T10:00:28.710Z,1.8
2018-12-04T10:01:18.527Z,1.8
2018-12-04T10:02:08.822Z,1.9
2018-12-04T10:02:59.170Z,1.9
2018-12-04T10:03:48.959Z,1.9
2018-12-04T10:04:39.055Z,1.8
2018-12-04T10:05:29.062Z,1.8
2018-12-04T10:06:19.105Z,1.8
2018-12-04T10:07:09.026Z,1.8
2018-12-04T10:07:59.509Z,1.8
2018-12-04T10:08:49.297Z,1.6
2018-12-04T10:09:39.341Z,1.7
2018-12-04T10:10:29.452Z,1.6
2018-12-04T10:11:19.476Z,1.6
2018-12-04T10:12:09.522Z,1.7
2018-12-04T10:12:59.404Z,1.6
2018-12-04T10:13:49.656Z,1.8
2018-12-04T10:14:39.929Z,1.8
2018-12-04T10:15:29.527Z,1.8
2018-12-04T10:16:19.248Z,1.9
2018-12-04T10:17:10.173Z,2
2018-12-04T10:17:59.391Z,2
2018-12-04T10:18:49.733Z,2.1
2018-12-04T10:19:40.302Z,2.1
2018-12-04T10:20:30.123Z,2.1
2018-12-04T10:21:20.383Z,2.1
2018-12-04T10:22:11.023Z,2.1
2018-12-04T10:23:00.594Z,2.1
2018-12-04T10:23:50.315Z,2.1
2018-12-04T10:24:40.084Z,2
2018-12-04T10:25:30.161Z,2.1
2018-12-04T10:26:19.928Z,2.1
2018-12-04T10:27:10.542Z,2
2018-12-04T10:28:00.617Z,2.1
2018-12-04T10:28:50.742Z,2.3
2018-12-04T10:29:40.706Z,2.1
2018-12-04T10:30:30.795Z,2.1
2018-12-04T10:31:20.829Z,2.1
2018-12-04T10:32:10.890Z,2.1
2018-12-04T10:33:01.017Z,1.9
2018-12-04T10:33:50.730Z,2.1
2018-12-04T10:34:41.065Z,2.1
2018-12-04T10:35:31.390Z,2
2018-12-04T10:36:21.205Z,2.1
2018-12-04T10:37:11.485Z,2
2018-12-04T10:38:02.700Z,2
2018-12-04T10:38:51.367Z,2.1
2018-12-04T10:39:41.404Z,2.2
2018-12-04T10:40:31.469Z,2.3
2018-12-04T10:41:22.024Z,2.1
2018-12-04T10:42:11.577Z,2.1
2018-12-04T10:43:00.800Z,2.1
2018-12-04T10:43:51.410Z,2.1
2018-12-04T10:44:41.477Z,2.1
2018-12-04T10:45:31.518Z,2.1
2018-12-04T10:46:22.189Z,2.1
2018-12-04T10:47:11.644Z,2.1
2018-12-04T10:48:02.006Z,2.1
2018-12-04T10:48:52.084Z,2.1
2018-12-04T10:49:42.629Z,2.1
2018-12-04T10:50:31.879Z,2
2018-12-04T10:51:22.560Z,2.1
2018-12-04T10:52:12.241Z,2.3
2018-12-04T10:53:02.299Z,2.3
2018-12-04T10:53:52.373Z,2.4
2018-12-04T10:54:42.149Z,2.4
2018-12-04T10:55:32.206Z,2.4
2018-12-04T10:56:22.826Z,2.5
2018-12-04T10:57:12.636Z,2.5
2018-12-04T10:58:02.653Z,2.4
2018-12-04T10:58:52.221Z,2.4
2018-12-04T10:59:42.777Z,2.4
2018-12-04T11:00:32.538Z,2.3
2018-12-04T11:01:23.131Z,2.3
2018-12-04T11:02:12.648Z,2.3
2018-12-04T11:03:02.416Z,2.3
2018-12-04T11:03:53.058Z,2.3
2018-12-04T11:04:43.405Z,2.3
2018-12-04T11:05:33.773Z,2.4
2018-12-04T11:06:23.225Z,2.4
2018-12-04T11:07:13.570Z,2.4
2018-12-04T11:08:03.330Z,2.3
2018-12-04T11:08:53.115Z,2.3
2018-12-04T11:09:43.709Z,2.3
2018-12-04T11:10:33.212Z,2.3
2018-12-04T11:11:23.572Z,2.4
2018-12-04T11:12:15.337Z,2.4
2018-12-04T11:13:03.962Z,2.5
2018-12-04T11:13:52.905Z,2.4
2018-12-04T11:14:43.785Z,2.4
2018-12-04T11:15:34.116Z,2.3
2018-12-04T11:16:23.627Z,2.3
2018-12-04T11:17:13.392Z,2.3
2018-12-04T11:18:04.529Z,2.3
2018-12-04T11:18:53.586Z,2.3
2018-12-04T11:19:43.950Z,2.3
2018-12-04T11:20:34.215Z,2.2
2018-12-04T11:21:24.507Z,2.2
2018-12-04T11:22:14.802Z,2.1
2018-12-04T11:23:04.063Z,2.2
2018-12-04T11:23:53.912Z,2.1
2018-12-04T11:24:43.981Z,2.1
2018-12-04T11:25:34.802Z,2.1
2018-12-04T11:26:24.588Z,2.3
2018-12-04T11:27:14.399Z,2.1
2018-12-04T11:28:04.484Z,2.1
2018-12-04T11:28:54.737Z,2.1
2018-12-04T11:29:44.596Z,2.1
2018-12-04T11:30:34.382Z,2.3
2018-12-04T11:31:24.897Z,2.3
2018-12-04T11:32:14.826Z,2.1
2018-12-04T11:33:04.539Z,2.2
2018-12-04T11:33:53.819Z,2.3
2018-12-04T11:34:44.841Z,2.2
2018-12-04T11:35:34.426Z,2.1
2018-12-04T11:36:24.211Z,2.2
2018-12-04T11:37:15.081Z,2.3
2018-12-04T11:38:04.855Z,2.3
2018-12-04T11:38:55.398Z,2.3
2018-12-04T11:39:45.249Z,2.3
2018-12-04T11:40:35.571Z,2.3
2018-12-04T11:41:25.096Z,2.3
2018-12-04T11:42:15.432Z,2.3
2018-12-04T11:43:05.236Z,2.3
2018-12-04T11:43:55.001Z,2.3
2018-12-04T11:44:45.609Z,2.1
2018-12-04T11:45:35.633Z,2.1
2018-12-04T11:46:25.438Z,2.1
2018-12-04T11:47:15.965Z,2.1
2018-12-04T11:48:06.087Z,2.1
2018-12-04T11:48:54.776Z,2.3
2018-12-04T11:49:46.199Z,2.4
2018-12-04T11:50:36.220Z,2.3
2018-12-04T11:51:26.266Z,2.4
2018-12-04T11:52:16.118Z,2.2
2018-12-04T11:53:06.171Z,2.2
2018-12-04T11:53:56.430Z,2.4
2018-12-04T11:54:45.738Z,2.4
2018-12-04T11:55:36.801Z,2.3
2018-12-04T11:56:26.395Z,2.2
2018-12-04T11:57:16.943Z,2.3
2018-12-04T11:58:06.424Z,2.3
2018-12-04T11:58:57.041Z,2.5
2018-12-04T11:59:47.092Z,2.6
2018-12-04T12:00:36.885Z,2.6
2018-12-04T12:01:26.737Z,2.6
2018-12-04T12:02:17.002Z,2.6
2018-12-04T12:03:06.777Z,2.6
2018-12-04T12:03:57.385Z,2.5
2018-12-04T12:04:47.175Z,2.6
2018-12-04T12:05:37.489Z,2.6
2018-12-04T12:06:27.004Z,2.7
2018-12-04T12:07:22.847Z,2.8
2018-12-04T12:08:07.647Z,2.8
2018-12-04T12:08:57.727Z,2.8